sensor_id;sensor_type;location;lat;lon;timestamp;P1;durP1;ratioP1;P2;durP2;ratioP2
38683;SDS011;24910;53.248;-6.134;2022-11-15T00:00:17;19.48;;;2.65;;
38683;SDS011;24910;53.248;-6.134;2022-11-15T00:03:05;14.10;;;1.90;;
38683;SDS011;24910;53.248;-6.134;2022-11-15T00:05:53;13.57;;;2.13;;
38683;SDS011;24910;53.248;-6.134;2022-11-15T00:08:41;17.23;;;2.15;;
38683;SDS011;24910;53.248;-6.134;2022-11-15T00:11:29;18.35;;;2.10;;
38683;SDS011;24910;53.248;-6.134;2022-11-15T00:14:18;13.50;;;1.70;;
38683;SDS011;24910;53.248;-6.134;2022-11-15T00:17:06;15.70;;;1.75;;
38683;SDS011;24910;53.248;-6.134;2022-11-15T00:19:54;10.80;;;1.80;;
38683;SDS011;24910;53.248;-6.134;2022-11-15T00:22:41;12.15;;;1.55;;
38683;SDS011;24910;53.248;-6.134;2022-11-15T00:25:29;9.82;;;1.70;;
38683;SDS011;24910;53.248;-6.134;2022-11-15T00:28:17;14.43;;;1.48;;
38683;SDS011;24910;53.248;-6.134;2022-11-15T00:31:06;15.60;;;1.67;;
38683;SDS011;24910;53.248;-6.134;2022-11-15T00:33:55;17.15;;;1.95;;
38683;SDS011;24910;53.248;-6.134;2022-11-15T00:36:43;11.77;;;1.60;;
38683;SDS011;24910;53.248;-6.134;2022-11-15T00:39:31;15.65;;;1.60;;
38683;SDS011;24910;53.248;-6.134;2022-11-15T00:42:18;13.43;;;1.58;;
38683;SDS011;24910;53.248;-6.134;2022-11-15T00:45:07;17.00;;;1.58;;
38683;SDS011;24910;53.248;-6.134;2022-11-15T00:47:56;12.13;;;1.55;;
38683;SDS011;24910;53.248;-6.134;2022-11-15T00:50:44;13.18;;;1.65;;
38683;SDS011;24910;53.248;-6.134;2022-11-15T00:53:32;10.77;;;1.50;;
38683;SDS011;24910;53.248;-6.134;2022-11-15T00:56:20;8.30;;;1.27;;
38683;SDS011;24910;53.248;-6.134;2022-11-15T00:59:08;13.13;;;1.30;;
38683;SDS011;24910;53.248;-6.134;2022-11-15T01:01:55;8.32;;;1.10;;
38683;SDS011;24910;53.248;-6.134;2022-11-15T01:04:44;10.02;;;0.90;;
38683;SDS011;24910;53.248;-6.134;2022-11-15T01:07:31;7.75;;;1.02;;
38683;SDS011;24910;53.248;-6.134;2022-11-15T01:10:19;7.32;;;1.05;;
38683;SDS011;24910;53.248;-6.134;2022-11-15T01:13:07;7.50;;;0.90;;
38683;SDS011;24910;53.248;-6.134;2022-11-15T01:15:55;9.43;;;1.65;;
38683;SDS011;24910;53.248;-6.134;2022-11-15T01:18:43;9.45;;;1.02;;
38683;SDS011;24910;53.248;-6.134;2022-11-15T01:21:32;13.50;;;1.40;;
38683;SDS011;24910;53.248;-6.134;2022-11-15T01:24:20;7.57;;;1.15;;
38683;SDS011;24910;53.248;-6.134;2022-11-15T01:27:07;10.10;;;1.02;;
38683;SDS011;24910;53.248;-6.134;2022-11-15T01:29:55;7.72;;;1.05;;
38683;SDS011;24910;53.248;-6.134;2022-11-15T01:32:43;10.55;;;1.67;;
38683;SDS011;24910;53.248;-6.134;2022-11-15T01:35:31;15.77;;;1.48;;
38683;SDS011;24910;53.248;-6.134;2022-11-15T01:38:20;16.35;;;1.30;;
38683;SDS011;24910;53.248;-6.134;2022-11-15T01:41:13;10.60;;;1.17;;
38683;SDS011;24910;53.248;-6.134;2022-11-15T01:47:29;9.80;;;0.90;;
38683;SDS011;24910;53.248;-6.134;2022-11-15T01:50:22;7.80;;;0.80;;
38683;SDS011;24910;53.248;-6.134;2022-11-15T01:53:13;4.47;;;0.90;;
38683;SDS011;24910;53.248;-6.134;2022-11-15T01:56:04;6.13;;;0.73;;
38683;SDS011;24910;53.248;-6.134;2022-11-15T01:58:56;6.43;;;1.08;;
38683;SDS011;24910;53.248;-6.134;2022-11-15T02:01:45;8.75;;;0.85;;
38683;SDS011;24910;53.248;-6.134;2022-11-15T02:04:35;10.20;;;1.05;;
38683;SDS011;24910;53.248;-6.134;2022-11-15T02:07:26;10.35;;;1.25;;
38683;SDS011;24910;53.248;-6.134;2022-11-15T02:10:17;10.82;;;1.58;;
38683;SDS011;24910;53.248;-6.134;2022-11-15T02:13:08;9.15;;;1.02;;
38683;SDS011;24910;53.248;-6.134;2022-11-15T02:15:58;6.82;;;1.23;;
38683;SDS011;24910;53.248;-6.134;2022-11-15T02:18:52;4.63;;;1.17;;
38683;SDS011;24910;53.248;-6.134;2022-11-15T02:21:44;1.05;;;0.20;;
38683;SDS011;24910;53.248;-6.134;2022-11-15T02:31:34;4.15;;;0.65;;
38683;SDS011;24910;53.248;-6.134;2022-11-15T02:34:28;7.00;;;1.02;;
38683;SDS011;24910;53.248;-6.134;2022-11-15T02:37:36;5.28;;;1.02;;
38683;SDS011;24910;53.248;-6.134;2022-11-15T02:40:33;6.75;;;1.15;;
38683;SDS011;24910;53.248;-6.134;2022-11-15T02:43:28;6.13;;;0.90;;
38683;SDS011;24910;53.248;-6.134;2022-11-15T02:46:38;7.75;;;0.75;;
38683;SDS011;24910;53.248;-6.134;2022-11-15T02:49:47;5.90;;;0.90;;
38683;SDS011;24910;53.248;-6.134;2022-11-15T02:52:38;8.63;;;1.20;;
38683;SDS011;24910;53.248;-6.134;2022-11-15T02:55:26;15.25;;;1.20;;
38683;SDS011;24910;53.248;-6.134;2022-11-15T02:58:20;11.05;;;1.33;;
38683;SDS011;24910;53.248;-6.134;2022-11-15T03:01:28;9.68;;;1.15;;
38683;SDS011;24910;53.248;-6.134;2022-11-15T03:04:26;7.10;;;1.08;;
38683;SDS011;24910;53.248;-6.134;2022-11-15T03:07:22;8.38;;;1.35;;
38683;SDS011;24910;53.248;-6.134;2022-11-15T03:10:17;8.10;;;1.20;;
38683;SDS011;24910;53.248;-6.134;2022-11-15T03:13:12;9.35;;;1.15;;
38683;SDS011;24910;53.248;-6.134;2022-11-15T03:16:09;12.63;;;1.65;;
38683;SDS011;24910;53.248;-6.134;2022-11-15T03:19:04;9.90;;;1.13;;
38683;SDS011;24910;53.248;-6.134;2022-11-15T03:21:57;8.70;;;1.42;;
38683;SDS011;24910;53.248;-6.134;2022-11-15T03:27:40;15.50;;;1.27;;
38683;SDS011;24910;53.248;-6.134;2022-11-15T03:30:33;11.02;;;1.65;;
38683;SDS011;24910;53.248;-6.134;2022-11-15T03:33:23;8.27;;;1.23;;
38683;SDS011;24910;53.248;-6.134;2022-11-15T03:36:12;10.45;;;1.55;;
38683;SDS011;24910;53.248;-6.134;2022-11-15T03:39:03;10.98;;;1.33;;
38683;SDS011;24910;53.248;-6.134;2022-11-15T03:41:56;11.65;;;1.65;;
38683;SDS011;24910;53.248;-6.134;2022-11-15T03:44:54;8.88;;;1.42;;
38683;SDS011;24910;53.248;-6.134;2022-11-15T03:47:49;12.05;;;1.85;;
38683;SDS011;24910;53.248;-6.134;2022-11-15T03:50:45;13.77;;;1.90;;
38683;SDS011;24910;53.248;-6.134;2022-11-15T03:53:33;8.88;;;1.20;;
38683;SDS011;24910;53.248;-6.134;2022-11-15T03:56:22;13.18;;;1.83;;
38683;SDS011;24910;53.248;-6.134;2022-11-15T03:59:10;7.90;;;1.48;;
38683;SDS011;24910;53.248;-6.134;2022-11-15T04:01:58;9.27;;;1.48;;
38683;SDS011;24910;53.248;-6.134;2022-11-15T04:04:46;10.57;;;1.42;;
38683;SDS011;24910;53.248;-6.134;2022-11-15T04:07:34;10.07;;;1.67;;
38683;SDS011;24910;53.248;-6.134;2022-11-15T04:10:21;9.68;;;1.33;;
38683;SDS011;24910;53.248;-6.134;2022-11-15T04:13:10;15.35;;;1.90;;
38683;SDS011;24910;53.248;-6.134;2022-11-15T04:15:59;12.68;;;2.08;;
38683;SDS011;24910;53.248;-6.134;2022-11-15T04:18:47;18.23;;;2.10;;
38683;SDS011;24910;53.248;-6.134;2022-11-15T04:21:55;13.88;;;2.13;;
38683;SDS011;24910;53.248;-6.134;2022-11-15T04:25:00;16.50;;;2.65;;
38683;SDS011;24910;53.248;-6.134;2022-11-15T04:27:47;24.50;;;2.58;;
38683;SDS011;24910;53.248;-6.134;2022-11-15T04:30:36;18.30;;;1.90;;
38683;SDS011;24910;53.248;-6.134;2022-11-15T04:33:24;13.57;;;2.00;;
38683;SDS011;24910;53.248;-6.134;2022-11-15T04:36:11;18.27;;;2.45;;
38683;SDS011;24910;53.248;-6.134;2022-11-15T04:39:16;13.20;;;2.05;;
38683;SDS011;24910;53.248;-6.134;2022-11-15T04:42:04;16.80;;;2.33;;
38683;SDS011;24910;53.248;-6.134;2022-11-15T04:44:51;20.70;;;2.33;;
38683;SDS011;24910;53.248;-6.134;2022-11-15T04:47:40;14.80;;;1.70;;
38683;SDS011;24910;53.248;-6.134;2022-11-15T04:50:30;18.70;;;2.50;;
38683;SDS011;24910;53.248;-6.134;2022-11-15T04:53:18;19.33;;;2.53;;
38683;SDS011;24910;53.248;-6.134;2022-11-15T04:56:06;16.58;;;1.92;;
38683;SDS011;24910;53.248;-6.134;2022-11-15T04:58:54;20.27;;;2.42;;
38683;SDS011;24910;53.248;-6.134;2022-11-15T05:01:41;17.25;;;2.45;;
38683;SDS011;24910;53.248;-6.134;2022-11-15T05:04:31;16.95;;;2.17;;
38683;SDS011;24910;53.248;-6.134;2022-11-15T05:07:17;15.30;;;2.42;;
38683;SDS011;24910;53.248;-6.134;2022-11-15T05:10:05;24.55;;;2.72;;
38683;SDS011;24910;53.248;-6.134;2022-11-15T05:12:53;14.00;;;1.70;;
38683;SDS011;24910;53.248;-6.134;2022-11-15T05:15:41;12.05;;;2.17;;
38683;SDS011;24910;53.248;-6.134;2022-11-15T05:18:28;18.50;;;2.33;;
38683;SDS011;24910;53.248;-6.134;2022-11-15T05:21:17;14.82;;;2.03;;
38683;SDS011;24910;53.248;-6.134;2022-11-15T05:24:08;15.03;;;1.93;;
38683;SDS011;24910;53.248;-6.134;2022-11-15T05:26:56;15.52;;;2.22;;
38683;SDS011;24910;53.248;-6.134;2022-11-15T05:29:44;15.93;;;2.20;;
38683;SDS011;24910;53.248;-6.134;2022-11-15T05:32:31;17.13;;;2.35;;
38683;SDS011;24910;53.248;-6.134;2022-11-15T05:35:21;20.35;;;2.28;;
38683;SDS011;24910;53.248;-6.134;2022-11-15T05:38:22;14.63;;;2.10;;
38683;SDS011;24910;53.248;-6.134;2022-11-15T05:41:10;20.63;;;2.50;;
38683;SDS011;24910;53.248;-6.134;2022-11-15T05:43:59;18.80;;;2.75;;
38683;SDS011;24910;53.248;-6.134;2022-11-15T05:46:49;12.32;;;2.65;;
38683;SDS011;24910;53.248;-6.134;2022-11-15T05:49:39;15.98;;;2.45;;
38683;SDS011;24910;53.248;-6.134;2022-11-15T05:52:29;15.57;;;2.25;;
38683;SDS011;24910;53.248;-6.134;2022-11-15T05:55:23;20.05;;;2.72;;
38683;SDS011;24910;53.248;-6.134;2022-11-15T05:58:10;20.50;;;2.60;;
38683;SDS011;24910;53.248;-6.134;2022-11-15T06:00:58;18.00;;;2.88;;
38683;SDS011;24910;53.248;-6.134;2022-11-15T06:03:46;14.82;;;2.42;;
38683;SDS011;24910;53.248;-6.134;2022-11-15T06:06:34;16.52;;;2.50;;
38683;SDS011;24910;53.248;-6.134;2022-11-15T06:09:21;15.95;;;2.65;;
38683;SDS011;24910;53.248;-6.134;2022-11-15T06:12:10;21.85;;;2.50;;
38683;SDS011;24910;53.248;-6.134;2022-11-15T06:14:57;22.52;;;2.33;;
38683;SDS011;24910;53.248;-6.134;2022-11-15T06:17:45;16.38;;;2.00;;
38683;SDS011;24910;53.248;-6.134;2022-11-15T06:20:33;13.60;;;2.08;;
38683;SDS011;24910;53.248;-6.134;2022-11-15T06:23:24;14.32;;;2.60;;
38683;SDS011;24910;53.248;-6.134;2022-11-15T06:26:11;22.95;;;2.72;;
38683;SDS011;24910;53.248;-6.134;2022-11-15T06:29:00;19.95;;;2.58;;
38683;SDS011;24910;53.248;-6.134;2022-11-15T06:31:49;18.88;;;2.70;;
38683;SDS011;24910;53.248;-6.134;2022-11-15T06:34:36;17.88;;;2.90;;
38683;SDS011;24910;53.248;-6.134;2022-11-15T06:37:24;16.45;;;2.05;;
38683;SDS011;24910;53.248;-6.134;2022-11-15T06:40:11;19.80;;;2.20;;
38683;SDS011;24910;53.248;-6.134;2022-11-15T06:42:59;22.58;;;2.20;;
38683;SDS011;24910;53.248;-6.134;2022-11-15T06:45:48;14.05;;;2.25;;
38683;SDS011;24910;53.248;-6.134;2022-11-15T06:48:35;16.85;;;2.80;;
38683;SDS011;24910;53.248;-6.134;2022-11-15T06:51:23;20.42;;;2.50;;
38683;SDS011;24910;53.248;-6.134;2022-11-15T06:54:10;13.77;;;2.35;;
38683;SDS011;24910;53.248;-6.134;2022-11-15T06:56:58;19.45;;;2.20;;
38683;SDS011;24910;53.248;-6.134;2022-11-15T06:59:46;16.38;;;2.95;;
38683;SDS011;24910;53.248;-6.134;2022-11-15T07:02:35;13.90;;;2.35;;
38683;SDS011;24910;53.248;-6.134;2022-11-15T07:05:23;16.65;;;2.17;;
38683;SDS011;24910;53.248;-6.134;2022-11-15T07:08:11;20.13;;;2.38;;
38683;SDS011;24910;53.248;-6.134;2022-11-15T07:10:59;20.33;;;3.20;;
38683;SDS011;24910;53.248;-6.134;2022-11-15T07:13:47;20.05;;;2.25;;
38683;SDS011;24910;53.248;-6.134;2022-11-15T07:16:35;22.90;;;2.50;;
38683;SDS011;24910;53.248;-6.134;2022-11-15T07:19:25;14.75;;;2.83;;
38683;SDS011;24910;53.248;-6.134;2022-11-15T07:22:12;16.17;;;2.08;;
38683;SDS011;24910;53.248;-6.134;2022-11-15T07:25:00;15.63;;;2.72;;
38683;SDS011;24910;53.248;-6.134;2022-11-15T07:27:53;17.77;;;2.88;;
38683;SDS011;24910;53.248;-6.134;2022-11-15T07:30:41;19.33;;;2.70;;
38683;SDS011;24910;53.248;-6.134;2022-11-15T07:33:30;19.60;;;3.10;;
38683;SDS011;24910;53.248;-6.134;2022-11-15T07:36:20;20.02;;;2.72;;
38683;SDS011;24910;53.248;-6.134;2022-11-15T07:39:09;19.33;;;2.58;;
38683;SDS011;24910;53.248;-6.134;2022-11-15T07:41:57;21.83;;;3.55;;
38683;SDS011;24910;53.248;-6.134;2022-11-15T07:45:04;13.70;;;2.75;;
38683;SDS011;24910;53.248;-6.134;2022-11-15T07:47:53;18.38;;;2.25;;
38683;SDS011;24910;53.248;-6.134;2022-11-15T07:50:41;15.38;;;2.30;;
38683;SDS011;24910;53.248;-6.134;2022-11-15T07:53:31;16.70;;;2.38;;
38683;SDS011;24910;53.248;-6.134;2022-11-15T07:56:19;18.13;;;3.22;;
38683;SDS011;24910;53.248;-6.134;2022-11-15T07:59:07;21.38;;;2.80;;
38683;SDS011;24910;53.248;-6.134;2022-11-15T08:01:54;13.05;;;2.65;;
38683;SDS011;24910;53.248;-6.134;2022-11-15T08:04:43;13.65;;;2.20;;
38683;SDS011;24910;53.248;-6.134;2022-11-15T08:07:31;15.05;;;2.50;;
38683;SDS011;24910;53.248;-6.134;2022-11-15T08:10:20;16.77;;;2.45;;
38683;SDS011;24910;53.248;-6.134;2022-11-15T08:13:08;14.55;;;2.40;;
38683;SDS011;24910;53.248;-6.134;2022-11-15T08:15:58;11.88;;;1.80;;
38683;SDS011;24910;53.248;-6.134;2022-11-15T08:18:48;15.63;;;2.25;;
38683;SDS011;24910;53.248;-6.134;2022-11-15T08:21:36;13.88;;;2.75;;
38683;SDS011;24910;53.248;-6.134;2022-11-15T08:24:23;14.05;;;2.45;;
38683;SDS011;24910;53.248;-6.134;2022-11-15T08:27:13;15.90;;;2.50;;
38683;SDS011;24910;53.248;-6.134;2022-11-15T08:30:01;14.82;;;3.25;;
38683;SDS011;24910;53.248;-6.134;2022-11-15T08:32:50;15.57;;;3.55;;
38683;SDS011;24910;53.248;-6.134;2022-11-15T08:35:39;16.45;;;2.80;;
38683;SDS011;24910;53.248;-6.134;2022-11-15T08:38:27;12.95;;;2.22;;
38683;SDS011;24910;53.248;-6.134;2022-11-15T08:41:18;12.93;;;2.50;;
38683;SDS011;24910;53.248;-6.134;2022-11-15T08:44:12;12.65;;;2.25;;
38683;SDS011;24910;53.248;-6.134;2022-11-15T08:47:00;23.27;;;2.60;;
38683;SDS011;24910;53.248;-6.134;2022-11-15T08:49:48;13.00;;;2.65;;
38683;SDS011;24910;53.248;-6.134;2022-11-15T08:52:36;23.25;;;2.83;;
38683;SDS011;24910;53.248;-6.134;2022-11-15T08:55:23;17.77;;;2.50;;
38683;SDS011;24910;53.248;-6.134;2022-11-15T08:58:11;13.48;;;2.55;;
38683;SDS011;24910;53.248;-6.134;2022-11-15T09:01:00;14.07;;;3.03;;
38683;SDS011;24910;53.248;-6.134;2022-11-15T09:03:48;21.63;;;3.00;;
38683;SDS011;24910;53.248;-6.134;2022-11-15T09:06:36;22.88;;;3.50;;
38683;SDS011;24910;53.248;-6.134;2022-11-15T09:12:15;17.77;;;2.80;;
38683;SDS011;24910;53.248;-6.134;2022-11-15T09:15:03;17.58;;;2.78;;
38683;SDS011;24910;53.248;-6.134;2022-11-15T09:17:53;18.50;;;2.53;;
38683;SDS011;24910;53.248;-6.134;2022-11-15T09:20:44;16.92;;;2.50;;
38683;SDS011;24910;53.248;-6.134;2022-11-15T09:23:32;21.75;;;2.75;;
38683;SDS011;24910;53.248;-6.134;2022-11-15T09:26:20;16.42;;;3.22;;
38683;SDS011;24910;53.248;-6.134;2022-11-15T09:29:07;17.58;;;3.40;;
38683;SDS011;24910;53.248;-6.134;2022-11-15T09:31:55;16.92;;;3.55;;
38683;SDS011;24910;53.248;-6.134;2022-11-15T09:34:44;13.55;;;3.10;;
38683;SDS011;24910;53.248;-6.134;2022-11-15T09:37:31;14.82;;;2.80;;
38683;SDS011;24910;53.248;-6.134;2022-11-15T09:40:19;16.30;;;3.80;;
38683;SDS011;24910;53.248;-6.134;2022-11-15T09:43:11;16.83;;;2.53;;
38683;SDS011;24910;53.248;-6.134;2022-11-15T09:46:14;14.80;;;2.58;;
38683;SDS011;24910;53.248;-6.134;2022-11-15T09:49:08;18.05;;;3.13;;
38683;SDS011;24910;53.248;-6.134;2022-11-15T09:52:02;18.20;;;3.30;;
38683;SDS011;24910;53.248;-6.134;2022-11-15T09:57:30;17.13;;;2.10;;
38683;SDS011;24910;53.248;-6.134;2022-11-15T10:00:04;18.83;;;3.63;;
38683;SDS011;24910;53.248;-6.134;2022-11-15T10:03:06;22.50;;;3.53;;
38683;SDS011;24910;53.248;-6.134;2022-11-15T10:05:39;25.45;;;3.55;;
38683;SDS011;24910;53.248;-6.134;2022-11-15T10:08:16;17.83;;;2.58;;
38683;SDS011;24910;53.248;-6.134;2022-11-15T10:10:55;20.65;;;2.50;;
38683;SDS011;24910;53.248;-6.134;2022-11-15T10:13:46;19.48;;;3.33;;
38683;SDS011;24910;53.248;-6.134;2022-11-15T10:16:22;24.30;;;3.63;;
38683;SDS011;24910;53.248;-6.134;2022-11-15T10:19:14;21.75;;;2.90;;
38683;SDS011;24910;53.248;-6.134;2022-11-15T10:21:51;10.70;;;2.13;;
38683;SDS011;24910;53.248;-6.134;2022-11-15T10:24:31;20.50;;;3.63;;
38683;SDS011;24910;53.248;-6.134;2022-11-15T10:27:06;13.80;;;2.63;;
38683;SDS011;24910;53.248;-6.134;2022-11-15T10:29:42;13.32;;;2.08;;
38683;SDS011;24910;53.248;-6.134;2022-11-15T10:32:12;12.70;;;2.67;;
38683;SDS011;24910;53.248;-6.134;2022-11-15T10:34:43;20.30;;;3.55;;
38683;SDS011;24910;53.248;-6.134;2022-11-15T10:37:13;13.75;;;2.10;;
38683;SDS011;24910;53.248;-6.134;2022-11-15T10:39:44;11.30;;;2.25;;
38683;SDS011;24910;53.248;-6.134;2022-11-15T10:42:30;13.02;;;2.40;;
38683;SDS011;24910;53.248;-6.134;2022-11-15T10:44:59;15.73;;;2.20;;
38683;SDS011;24910;53.248;-6.134;2022-11-15T10:47:28;14.45;;;2.45;;
38683;SDS011;24910;53.248;-6.134;2022-11-15T10:50:06;16.55;;;2.60;;
38683;SDS011;24910;53.248;-6.134;2022-11-15T10:52:53;17.30;;;2.40;;
38683;SDS011;24910;53.248;-6.134;2022-11-15T10:55:26;10.98;;;2.22;;
38683;SDS011;24910;53.248;-6.134;2022-11-15T10:58:01;9.13;;;1.85;;
38683;SDS011;24910;53.248;-6.134;2022-11-15T11:00:33;10.93;;;2.20;;
38683;SDS011;24910;53.248;-6.134;2022-11-15T11:03:08;11.02;;;2.15;;
38683;SDS011;24910;53.248;-6.134;2022-11-15T11:06:05;7.93;;;1.48;;
38683;SDS011;24910;53.248;-6.134;2022-11-15T11:11:07;10.60;;;1.60;;
38683;SDS011;24910;53.248;-6.134;2022-11-15T11:13:37;11.90;;;1.80;;
38683;SDS011;24910;53.248;-6.134;2022-11-15T11:16:19;9.65;;;1.10;;
38683;SDS011;24910;53.248;-6.134;2022-11-15T11:19:08;11.32;;;1.65;;
38683;SDS011;24910;53.248;-6.134;2022-11-15T11:22:05;14.00;;;1.70;;
38683;SDS011;24910;53.248;-6.134;2022-11-15T11:24:44;13.98;;;1.38;;
38683;SDS011;24910;53.248;-6.134;2022-11-15T11:27:26;10.95;;;1.40;;
38683;SDS011;24910;53.248;-6.134;2022-11-15T11:30:09;12.43;;;1.67;;
38683;SDS011;24910;53.248;-6.134;2022-11-15T11:32:49;12.35;;;1.40;;
38683;SDS011;24910;53.248;-6.134;2022-11-15T11:35:35;12.50;;;1.85;;
38683;SDS011;24910;53.248;-6.134;2022-11-15T11:38:17;12.05;;;1.75;;
38683;SDS011;24910;53.248;-6.134;2022-11-15T11:41:03;8.00;;;1.30;;
38683;SDS011;24910;53.248;-6.134;2022-11-15T11:43:45;13.63;;;2.00;;
38683;SDS011;24910;53.248;-6.134;2022-11-15T11:49:09;9.90;;;1.70;;
38683;SDS011;24910;53.248;-6.134;2022-11-15T11:51:41;7.03;;;1.67;;
38683;SDS011;24910;53.248;-6.134;2022-11-15T11:54:14;9.27;;;1.60;;
38683;SDS011;24910;53.248;-6.134;2022-11-15T11:56:48;9.02;;;1.58;;
38683;SDS011;24910;53.248;-6.134;2022-11-15T11:59:24;9.50;;;1.60;;
38683;SDS011;24910;53.248;-6.134;2022-11-15T12:01:59;12.38;;;1.42;;
38683;SDS011;24910;53.248;-6.134;2022-11-15T12:04:40;10.63;;;1.48;;
38683;SDS011;24910;53.248;-6.134;2022-11-15T12:07:13;8.57;;;1.50;;
38683;SDS011;24910;53.248;-6.134;2022-11-15T12:09:48;12.95;;;1.50;;
38683;SDS011;24910;53.248;-6.134;2022-11-15T12:12:24;9.27;;;1.30;;
38683;SDS011;24910;53.248;-6.134;2022-11-15T12:15:00;8.63;;;1.50;;
38683;SDS011;24910;53.248;-6.134;2022-11-15T12:17:32;10.05;;;1.60;;
38683;SDS011;24910;53.248;-6.134;2022-11-15T12:20:02;7.38;;;1.40;;
38683;SDS011;24910;53.248;-6.134;2022-11-15T12:22:38;11.25;;;1.30;;
38683;SDS011;24910;53.248;-6.134;2022-11-15T12:25:14;9.13;;;1.50;;
38683;SDS011;24910;53.248;-6.134;2022-11-15T12:27:48;10.90;;;1.55;;
38683;SDS011;24910;53.248;-6.134;2022-11-15T12:30:22;9.50;;;1.38;;
38683;SDS011;24910;53.248;-6.134;2022-11-15T12:32:54;10.05;;;1.48;;
38683;SDS011;24910;53.248;-6.134;2022-11-15T12:35:31;15.15;;;1.77;;
38683;SDS011;24910;53.248;-6.134;2022-11-15T12:38:04;15.60;;;2.30;;
38683;SDS011;24910;53.248;-6.134;2022-11-15T12:40:37;11.70;;;1.63;;
38683;SDS011;24910;53.248;-6.134;2022-11-15T12:46:12;10.43;;;1.95;;
38683;SDS011;24910;53.248;-6.134;2022-11-15T12:51:22;9.45;;;1.42;;
38683;SDS011;24910;53.248;-6.134;2022-11-15T12:57:22;10.95;;;1.30;;
38683;SDS011;24910;53.248;-6.134;2022-11-15T13:00:04;7.85;;;1.75;;
38683;SDS011;24910;53.248;-6.134;2022-11-15T13:05:51;8.63;;;1.30;;
38683;SDS011;24910;53.248;-6.134;2022-11-15T13:08:39;8.23;;;1.40;;
38683;SDS011;24910;53.248;-6.134;2022-11-15T13:17:31;9.48;;;1.35;;
38683;SDS011;24910;53.248;-6.134;2022-11-15T13:23:01;7.93;;;1.58;;
38683;SDS011;24910;53.248;-6.134;2022-11-15T13:25:43;10.82;;;1.80;;
38683;SDS011;24910;53.248;-6.134;2022-11-15T13:28:31;11.02;;;2.00;;
38683;SDS011;24910;53.248;-6.134;2022-11-15T13:31:03;12.15;;;;;
38683;SDS011;24910;53.248;-6.134;2022-11-15T13:34:01;11.68;;;1.98;;
38683;SDS011;24910;53.248;-6.134;2022-11-15T13:36:53;14.15;;;2.00;;
38683;SDS011;24910;53.248;-6.134;2022-11-15T13:39:27;16.33;;;2.38;;
38683;SDS011;24910;53.248;-6.134;2022-11-15T13:41:58;12.40;;;2.08;;
38683;SDS011;24910;53.248;-6.134;2022-11-15T13:44:28;12.93;;;2.03;;
38683;SDS011;24910;53.248;-6.134;2022-11-15T13:47:03;12.00;;;1.83;;
38683;SDS011;24910;53.248;-6.134;2022-11-15T13:49:34;15.02;;;2.00;;
38683;SDS011;24910;53.248;-6.134;2022-11-15T13:52:06;12.45;;;2.63;;
38683;SDS011;24910;53.248;-6.134;2022-11-15T13:54:38;9.57;;;1.90;;
38683;SDS011;24910;53.248;-6.134;2022-11-15T13:57:12;16.92;;;2.28;;
38683;SDS011;24910;53.248;-6.134;2022-11-15T13:59:45;24.38;;;3.10;;
38683;SDS011;24910;53.248;-6.134;2022-11-15T14:02:18;16.83;;;2.15;;
38683;SDS011;24910;53.248;-6.134;2022-11-15T14:04:50;13.20;;;2.22;;
38683;SDS011;24910;53.248;-6.134;2022-11-15T14:07:23;14.23;;;2.17;;
38683;SDS011;24910;53.248;-6.134;2022-11-15T14:09:55;14.48;;;2.15;;
38683;SDS011;24910;53.248;-6.134;2022-11-15T14:12:31;13.43;;;1.80;;
38683;SDS011;24910;53.248;-6.134;2022-11-15T14:15:02;8.25;;;1.85;;
38683;SDS011;24910;53.248;-6.134;2022-11-15T14:17:52;18.48;;;2.20;;
38683;SDS011;24910;53.248;-6.134;2022-11-15T14:20:29;12.70;;;1.98;;
38683;SDS011;24910;53.248;-6.134;2022-11-15T14:23:02;12.32;;;1.98;;
38683;SDS011;24910;53.248;-6.134;2022-11-15T14:25:35;14.82;;;2.53;;
38683;SDS011;24910;53.248;-6.134;2022-11-15T14:28:09;14.05;;;2.03;;
38683;SDS011;24910;53.248;-6.134;2022-11-15T14:30:44;15.20;;;1.85;;
38683;SDS011;24910;53.248;-6.134;2022-11-15T14:33:21;13.80;;;2.47;;
38683;SDS011;24910;53.248;-6.134;2022-11-15T14:35:55;11.05;;;1.40;;
38683;SDS011;24910;53.248;-6.134;2022-11-15T14:38:28;13.35;;;2.15;;
38683;SDS011;24910;53.248;-6.134;2022-11-15T14:40:57;12.07;;;2.25;;
38683;SDS011;24910;53.248;-6.134;2022-11-15T14:43:26;14.55;;;2.67;;
38683;SDS011;24910;53.248;-6.134;2022-11-15T14:45:55;8.95;;;1.85;;
38683;SDS011;24910;53.248;-6.134;2022-11-15T14:48:24;18.23;;;2.85;;
38683;SDS011;24910;53.248;-6.134;2022-11-15T14:50:53;9.80;;;1.65;;
38683;SDS011;24910;53.248;-6.134;2022-11-15T14:53:22;9.40;;;1.80;;
38683;SDS011;24910;53.248;-6.134;2022-11-15T14:55:53;7.68;;;1.92;;
38683;SDS011;24910;53.248;-6.134;2022-11-15T14:58:22;10.90;;;1.83;;
38683;SDS011;24910;53.248;-6.134;2022-11-15T15:00:51;5.72;;;1.48;;
38683;SDS011;24910;53.248;-6.134;2022-11-15T15:03:20;9.73;;;1.63;;
38683;SDS011;24910;53.248;-6.134;2022-11-15T15:05:49;10.32;;;1.58;;
38683;SDS011;24910;53.248;-6.134;2022-11-15T15:08:18;8.27;;;1.50;;
38683;SDS011;24910;53.248;-6.134;2022-11-15T15:10:47;7.40;;;1.33;;
38683;SDS011;24910;53.248;-6.134;2022-11-15T15:13:18;8.82;;;1.50;;
38683;SDS011;24910;53.248;-6.134;2022-11-15T15:15:49;9.55;;;1.42;;
38683;SDS011;24910;53.248;-6.134;2022-11-15T15:18:19;9.80;;;1.58;;
38683;SDS011;24910;53.248;-6.134;2022-11-15T15:20:50;8.75;;;1.90;;
38683;SDS011;24910;53.248;-6.134;2022-11-15T15:23:24;7.40;;;1.42;;
38683;SDS011;24910;53.248;-6.134;2022-11-15T15:25:56;12.80;;;1.85;;
38683;SDS011;24910;53.248;-6.134;2022-11-15T15:28:26;10.10;;;1.70;;
38683;SDS011;24910;53.248;-6.134;2022-11-15T15:31:01;8.90;;;1.85;;
38683;SDS011;24910;53.248;-6.134;2022-11-15T15:33:30;7.28;;;1.60;;
38683;SDS011;24910;53.248;-6.134;2022-11-15T15:35:59;9.57;;;1.80;;
38683;SDS011;24910;53.248;-6.134;2022-11-15T15:38:28;11.43;;;2.03;;
38683;SDS011;24910;53.248;-6.134;2022-11-15T15:40:58;14.13;;;2.33;;
38683;SDS011;24910;53.248;-6.134;2022-11-15T15:43:31;8.00;;;1.83;;
38683;SDS011;24910;53.248;-6.134;2022-11-15T15:46:00;7.47;;;1.70;;
38683;SDS011;24910;53.248;-6.134;2022-11-15T15:48:29;7.93;;;1.70;;
38683;SDS011;24910;53.248;-6.134;2022-11-15T15:51:01;12.23;;;1.83;;
38683;SDS011;24910;53.248;-6.134;2022-11-15T15:53:44;12.57;;;2.75;;
38683;SDS011;24910;53.248;-6.134;2022-11-15T15:56:13;10.32;;;2.03;;
38683;SDS011;24910;53.248;-6.134;2022-11-15T15:58:44;11.30;;;2.00;;
38683;SDS011;24910;53.248;-6.134;2022-11-15T16:01:15;12.80;;;2.08;;
38683;SDS011;24910;53.248;-6.134;2022-11-15T16:03:44;12.70;;;2.10;;
38683;SDS011;24910;53.248;-6.134;2022-11-15T16:06:25;12.93;;;2.38;;
38683;SDS011;24910;53.248;-6.134;2022-11-15T16:09:03;12.75;;;3.00;;
38683;SDS011;24910;53.248;-6.134;2022-11-15T16:11:42;16.10;;;3.72;;
38683;SDS011;24910;53.248;-6.134;2022-11-15T16:14:14;18.90;;;4.05;;
38683;SDS011;24910;53.248;-6.134;2022-11-15T16:16:43;17.90;;;3.92;;
38683;SDS011;24910;53.248;-6.134;2022-11-15T16:19:12;14.95;;;4.18;;
38683;SDS011;24910;53.248;-6.134;2022-11-15T16:21:41;14.95;;;3.20;;
38683;SDS011;24910;53.248;-6.134;2022-11-15T16:24:11;11.90;;;3.25;;
38683;SDS011;24910;53.248;-6.134;2022-11-15T16:26:40;17.45;;;3.10;;
38683;SDS011;24910;53.248;-6.134;2022-11-15T16:29:09;19.05;;;3.63;;
38683;SDS011;24910;53.248;-6.134;2022-11-15T16:31:40;18.45;;;3.58;;
38683;SDS011;24910;53.248;-6.134;2022-11-15T16:34:09;13.43;;;3.28;;
38683;SDS011;24910;53.248;-6.134;2022-11-15T16:36:38;12.93;;;3.38;;
38683;SDS011;24910;53.248;-6.134;2022-11-15T16:39:10;18.05;;;3.88;;
38683;SDS011;24910;53.248;-6.134;2022-11-15T16:41:41;16.08;;;3.30;;
38683;SDS011;24910;53.248;-6.134;2022-11-15T16:44:13;13.13;;;3.78;;
38683;SDS011;24910;53.248;-6.134;2022-11-15T16:46:44;10.70;;;4.30;;